RYR2MV EGCC-LEIB
Flight info
| Callsign | RYR2MV |
|---|---|
| Flight time | 2h 29m |
| Altitude | 37000 |
| Route | LISTO P18 TELBA L151 KIDLI UN859 SOPIL DCT BALAN DCT EVPOK DCT NARAK DCT GAI DCT LOMRA DCT ROCAN DCT PUMAL N859 BCN Z174 CORDA |
| Aircraft | B738/M-SDE3FGILRWY/SB1 |
Departure
| Time | 2026-05-05 07:24 |
|---|---|
| Airport | Manchester Airport (EGCC) |
Arrival
| Time | 2026-05-05 09:54 |
|---|---|
| Airport | Ibiza Airport (LEIB) |
| Time | Latitude | Longitude | Altitude | Speed | Heading |
|---|---|---|---|---|---|
| 2026-05-05 06:48 | 53.36060 | -2.26837 | 254 ft | 0 kts | 313° |
| 2026-05-05 07:14 | 53.36057 | -2.26831 | 254 ft | 3 kts | 313° |
| 2026-05-05 07:15 | 53.36044 | -2.26809 | 254 ft | 2 kts | 313° |
| 2026-05-05 07:15 | 53.36037 | -2.26796 | 254 ft | 3 kts | 307° |
| 2026-05-05 07:15 | 53.36028 | -2.26769 | 254 ft | 3 kts | 272° |
| 2026-05-05 07:15 | 53.36031 | -2.26739 | 254 ft | 3 kts | 234° |
| 2026-05-05 07:16 | 53.36043 | -2.26714 | 254 ft | 3 kts | 231° |
| 2026-05-05 07:16 | 53.36050 | -2.26699 | 254 ft | 0 kts | 231° |
| 2026-05-05 07:20 | 53.36047 | -2.26706 | 254 ft | 2 kts | 231° |
| 2026-05-05 07:20 | 53.36027 | -2.26745 | 254 ft | 6 kts | 220° |
| 2026-05-05 07:20 | 53.35982 | -2.26739 | 254 ft | 7 kts | 158° |
| 2026-05-05 07:21 | 53.35939 | -2.26713 | 254 ft | 7 kts | 167° |
| 2026-05-05 07:21 | 53.35894 | -2.26701 | 259 ft | 7 kts | 171° |
| 2026-05-05 07:21 | 53.35837 | -2.26686 | 266 ft | 11 kts | 171° |
| 2026-05-05 07:21 | 53.35736 | -2.26657 | 268 ft | 16 kts | 170° |
| 2026-05-05 07:22 | 53.35629 | -2.26626 | 266 ft | 15 kts | 173° |
| 2026-05-05 07:22 | 53.35527 | -2.26712 | 258 ft | 19 kts | 231° |
| 2026-05-05 07:22 | 53.35443 | -2.26888 | 251 ft | 20 kts | 231° |
| 2026-05-05 07:22 | 53.35351 | -2.27081 | 245 ft | 20 kts | 231° |
| 2026-05-05 07:23 | 53.35273 | -2.27208 | 238 ft | 15 kts | 198° |
| 2026-05-05 07:23 | 53.35152 | -2.27250 | 229 ft | 20 kts | 191° |
| 2026-05-05 07:23 | 53.35028 | -2.27300 | 225 ft | 15 kts | 207° |
| 2026-05-05 07:23 | 53.34951 | -2.27440 | 225 ft | 23 kts | 231° |
| 2026-05-05 07:24 | 53.34707 | -2.27948 | 225 ft | 91 kts | 231° |
| 2026-05-05 07:24 | 53.34174 | -2.29050 | 231 ft | 150 kts | 230° |
| 2026-05-05 07:24 | 53.33447 | -2.30518 | 655 ft | 166 kts | 230° |
| 2026-05-05 07:24 | 53.32713 | -2.31964 | 1540 ft | 164 kts | 233° |
| 2026-05-05 07:25 | 53.32111 | -2.33617 | 2137 ft | 166 kts | 262° |
| 2026-05-05 07:25 | 53.32183 | -2.35518 | 2608 ft | 170 kts | 288° |
| 2026-05-05 07:25 | 53.32495 | -2.37522 | 2878 ft | 193 kts | 287° |
| 2026-05-05 07:25 | 53.32812 | -2.39832 | 3160 ft | 208 kts | 282° |
| 2026-05-05 07:26 | 53.32595 | -2.42224 | 3541 ft | 222 kts | 242° |
| 2026-05-05 07:26 | 53.31466 | -2.43991 | 4048 ft | 231 kts | 207° |
| 2026-05-05 07:26 | 53.29849 | -2.44678 | 4239 ft | 252 kts | 188° |
| 2026-05-05 07:26 | 53.28034 | -2.44988 | 4553 ft | 270 kts | 181° |
| 2026-05-05 07:27 | 53.26200 | -2.44272 | 5367 ft | 275 kts | 153° |
| 2026-05-05 07:27 | 53.24517 | -2.42766 | 6334 ft | 275 kts | 152° |
| 2026-05-05 07:27 | 53.22821 | -2.41249 | 7189 ft | 278 kts | 152° |
| 2026-05-05 07:27 | 53.21098 | -2.39715 | 7976 ft | 283 kts | 153° |
| 2026-05-05 07:28 | 53.19345 | -2.38166 | 8788 ft | 287 kts | 153° |
| 2026-05-05 07:28 | 53.17566 | -2.36604 | 9641 ft | 291 kts | 153° |
| 2026-05-05 07:28 | 53.15763 | -2.35032 | 10390 ft | 296 kts | 154° |
| 2026-05-05 07:28 | 53.13865 | -2.33379 | 10630 ft | 321 kts | 154° |
| 2026-05-05 07:29 | 53.11816 | -2.31590 | 10885 ft | 342 kts | 154° |
| 2026-05-05 07:29 | 53.09676 | -2.29724 | 11457 ft | 351 kts | 154° |
| 2026-05-05 07:29 | 53.07501 | -2.27829 | 12219 ft | 355 kts | 154° |
| 2026-05-05 07:29 | 53.05304 | -2.25915 | 13005 ft | 358 kts | 154° |
| 2026-05-05 07:30 | 53.03080 | -2.23983 | 13737 ft | 363 kts | 154° |
| 2026-05-05 07:30 | 52.98556 | -2.20060 | 15101 ft | 370 kts | 155° |
| 2026-05-05 07:30 | 52.96274 | -2.18082 | 15865 ft | 370 kts | 154° |
| 2026-05-05 07:31 | 52.93988 | -2.16104 | 16613 ft | 372 kts | 155° |
| 2026-05-05 07:31 | 52.92248 | -2.14600 | 17121 ft | 375 kts | 155° |
| 2026-05-05 07:31 | 52.92240 | -2.14593 | 17125 ft | 375 kts | 155° |
| 2026-05-05 07:31 | 52.89898 | -2.12569 | 17791 ft | 378 kts | 155° |
| 2026-05-05 07:32 | 52.87554 | -2.10546 | 18441 ft | 381 kts | 155° |
| 2026-05-05 07:32 | 52.85195 | -2.08513 | 19056 ft | 384 kts | 155° |
| 2026-05-05 07:32 | 52.82819 | -2.06467 | 19652 ft | 386 kts | 155° |
| 2026-05-05 07:32 | 52.80429 | -2.04411 | 20228 ft | 389 kts | 155° |
| 2026-05-05 07:33 | 52.78019 | -2.02341 | 20791 ft | 392 kts | 155° |
| 2026-05-05 07:33 | 52.75591 | -2.00259 | 21340 ft | 395 kts | 155° |
| 2026-05-05 07:33 | 52.73148 | -1.98166 | 21908 ft | 397 kts | 155° |
| 2026-05-05 07:33 | 52.70696 | -1.96066 | 22525 ft | 398 kts | 155° |
| 2026-05-05 07:34 | 52.68230 | -1.93959 | 23043 ft | 401 kts | 155° |
| 2026-05-05 07:34 | 52.65746 | -1.91838 | 23531 ft | 405 kts | 155° |
| 2026-05-05 07:34 | 52.63234 | -1.89698 | 23977 ft | 407 kts | 155° |
| 2026-05-05 07:34 | 52.60708 | -1.87548 | 24407 ft | 410 kts | 155° |
| 2026-05-05 07:35 | 52.58172 | -1.85391 | 24818 ft | 412 kts | 155° |
| 2026-05-05 07:35 | 52.55617 | -1.83221 | 25239 ft | 415 kts | 154° |
| 2026-05-05 07:35 | 52.53047 | -1.81041 | 25637 ft | 417 kts | 154° |
| 2026-05-05 07:35 | 52.50460 | -1.78850 | 26033 ft | 420 kts | 154° |
| 2026-05-05 07:36 | 52.47858 | -1.76650 | 26487 ft | 420 kts | 154° |
| 2026-05-05 07:36 | 52.45288 | -1.74476 | 26889 ft | 422 kts | 154° |
| 2026-05-05 07:36 | 52.42674 | -1.72267 | 27281 ft | 425 kts | 154° |
| 2026-05-05 07:36 | 52.40001 | -1.70015 | 27647 ft | 427 kts | 154° |
| 2026-05-05 07:37 | 52.37381 | -1.67814 | 27989 ft | 430 kts | 154° |
| 2026-05-05 07:37 | 52.34673 | -1.65724 | 28367 ft | 431 kts | 160° |
| 2026-05-05 07:37 | 52.31834 | -1.64154 | 28767 ft | 431 kts | 163° |
| 2026-05-05 07:37 | 52.28957 | -1.62696 | 29097 ft | 434 kts | 164° |
| 2026-05-05 07:38 | 52.26060 | -1.61252 | 29373 ft | 437 kts | 164° |
| 2026-05-05 07:38 | 52.23147 | -1.59789 | 29700 ft | 439 kts | 164° |
| 2026-05-05 07:38 | 52.20224 | -1.58304 | 30033 ft | 440 kts | 164° |
| 2026-05-05 07:38 | 52.17305 | -1.56801 | 30366 ft | 441 kts | 163° |
| 2026-05-05 07:39 | 52.14384 | -1.55291 | 30759 ft | 439 kts | 163° |
| 2026-05-05 07:39 | 52.11475 | -1.53782 | 31129 ft | 438 kts | 163° |
| 2026-05-05 07:39 | 52.08573 | -1.52278 | 31517 ft | 437 kts | 163° |
| 2026-05-05 07:39 | 52.05684 | -1.50782 | 31913 ft | 435 kts | 163° |
| 2026-05-05 07:40 | 52.02794 | -1.49291 | 32201 ft | 437 kts | 163° |
| 2026-05-05 07:40 | 51.99912 | -1.47802 | 32706 ft | 432 kts | 163° |
| 2026-05-05 07:40 | 51.97055 | -1.46328 | 33048 ft | 431 kts | 163° |
| 2026-05-05 07:40 | 51.94193 | -1.44854 | 33349 ft | 432 kts | 163° |
| 2026-05-05 07:41 | 51.91328 | -1.43381 | 33608 ft | 433 kts | 163° |
| 2026-05-05 07:41 | 51.88457 | -1.41909 | 33916 ft | 433 kts | 163° |
| 2026-05-05 07:41 | 51.85592 | -1.40442 | 34223 ft | 432 kts | 163° |
| 2026-05-05 07:41 | 51.82730 | -1.38977 | 34490 ft | 431 kts | 163° |
| 2026-05-05 07:42 | 51.79865 | -1.37513 | 34683 ft | 432 kts | 163° |
| 2026-05-05 07:42 | 51.76994 | -1.36048 | 34913 ft | 433 kts | 163° |
| 2026-05-05 07:42 | 51.74125 | -1.34594 | 35167 ft | 432 kts | 163° |
| 2026-05-05 07:42 | 51.71250 | -1.33145 | 35327 ft | 434 kts | 163° |
| 2026-05-05 07:43 | 51.68366 | -1.31694 | 35551 ft | 434 kts | 163° |
| 2026-05-05 07:43 | 51.65486 | -1.30246 | 35798 ft | 433 kts | 163° |
| 2026-05-05 07:43 | 51.62608 | -1.28794 | 35987 ft | 434 kts | 163° |
| 2026-05-05 07:43 | 51.59724 | -1.27330 | 36193 ft | 434 kts | 163° |
| 2026-05-05 07:44 | 51.56844 | -1.25868 | 36418 ft | 434 kts | 163° |
| 2026-05-05 07:44 | 51.53962 | -1.24404 | 36547 ft | 436 kts | 163° |
| 2026-05-05 07:44 | 51.51066 | -1.22941 | 36734 ft | 436 kts | 163° |
| 2026-05-05 07:44 | 51.48181 | -1.21381 | 36906 ft | 438 kts | 158° |
| 2026-05-05 07:45 | 51.42635 | -1.17199 | 36986 ft | 443 kts | 155° |
| 2026-05-05 07:45 | 51.37068 | -1.13021 | 36981 ft | 439 kts | 156° |
| 2026-05-05 07:46 | 51.31541 | -1.08985 | 36984 ft | 434 kts | 157° |
| 2026-05-05 07:46 | 51.26072 | -1.04994 | 36987 ft | 431 kts | 157° |
| 2026-05-05 07:47 | 51.20576 | -1.00993 | 37008 ft | 438 kts | 157° |
| 2026-05-05 07:47 | 51.15030 | -0.96969 | 36998 ft | 443 kts | 156° |
| 2026-05-05 07:48 | 51.09402 | -0.92895 | 36990 ft | 445 kts | 156° |
| 2026-05-05 07:48 | 51.03754 | -0.88812 | 36982 ft | 446 kts | 157° |
| 2026-05-05 07:49 | 50.98093 | -0.84735 | 36980 ft | 446 kts | 157° |
| 2026-05-05 07:49 | 50.92445 | -0.80677 | 36974 ft | 445 kts | 157° |
| 2026-05-05 07:50 | 50.86816 | -0.76643 | 36975 ft | 444 kts | 157° |
| 2026-05-05 07:50 | 50.81446 | -0.71837 | 36974 ft | 443 kts | 148° |
| 2026-05-05 07:51 | 50.76308 | -0.66478 | 36966 ft | 442 kts | 148° |
| 2026-05-05 07:51 | 50.71182 | -0.61160 | 36966 ft | 440 kts | 149° |
| 2026-05-05 07:52 | 50.66054 | -0.55929 | 36963 ft | 438 kts | 149° |
| 2026-05-05 07:52 | 50.60933 | -0.50753 | 36976 ft | 437 kts | 149° |
| 2026-05-05 07:53 | 50.55820 | -0.45602 | 36965 ft | 436 kts | 149° |
| 2026-05-05 07:53 | 50.50718 | -0.40474 | 36963 ft | 435 kts | 149° |
| 2026-05-05 07:54 | 50.45612 | -0.35354 | 36962 ft | 435 kts | 149° |
| 2026-05-05 07:54 | 50.40505 | -0.30245 | 36966 ft | 435 kts | 149° |
| 2026-05-05 07:55 | 50.35395 | -0.25142 | 36955 ft | 436 kts | 149° |
| 2026-05-05 07:55 | 50.30275 | -0.20050 | 36955 ft | 436 kts | 149° |
| 2026-05-05 07:56 | 50.25191 | -0.15006 | 36955 ft | 436 kts | 149° |
| 2026-05-05 07:56 | 50.20034 | -0.09900 | 36951 ft | 436 kts | 149° |
| 2026-05-05 07:57 | 50.14949 | -0.04881 | 36957 ft | 435 kts | 149° |
| 2026-05-05 07:57 | 50.09736 | -0.00132 | 36929 ft | 433 kts | 159° |
| 2026-05-05 07:58 | 50.04006 | 0.02489 | 36949 ft | 429 kts | 168° |
| 2026-05-05 07:58 | 49.98213 | 0.04670 | 36948 ft | 428 kts | 168° |
| 2026-05-05 07:59 | 49.92446 | 0.06896 | 36940 ft | 427 kts | 167° |
| 2026-05-05 07:59 | 49.86690 | 0.09145 | 36921 ft | 426 kts | 167° |
| 2026-05-05 08:00 | 49.80957 | 0.11379 | 36925 ft | 424 kts | 167° |
| 2026-05-05 08:00 | 49.75237 | 0.13606 | 36915 ft | 423 kts | 167° |
| 2026-05-05 08:01 | 49.70494 | 0.15445 | 36924 ft | 422 kts | 167° |
| 2026-05-05 08:01 | 49.64811 | 0.17695 | 36911 ft | 421 kts | 166° |
| 2026-05-05 08:02 | 49.59148 | 0.19999 | 36912 ft | 421 kts | 166° |
| 2026-05-05 08:02 | 49.53491 | 0.22295 | 36913 ft | 420 kts | 166° |
| 2026-05-05 08:03 | 49.47834 | 0.24579 | 36918 ft | 420 kts | 166° |
| 2026-05-05 08:03 | 49.42178 | 0.26854 | 36913 ft | 420 kts | 166° |
| 2026-05-05 08:04 | 49.36519 | 0.29128 | 36914 ft | 421 kts | 166° |
| 2026-05-05 08:04 | 49.30850 | 0.31399 | 36911 ft | 421 kts | 166° |
| 2026-05-05 08:05 | 49.25192 | 0.33753 | 36913 ft | 422 kts | 165° |
| 2026-05-05 08:05 | 49.19527 | 0.36153 | 36894 ft | 423 kts | 165° |
| 2026-05-05 08:06 | 49.13858 | 0.38542 | 36898 ft | 423 kts | 165° |
| 2026-05-05 08:06 | 49.08216 | 0.40904 | 36900 ft | 423 kts | 165° |
| 2026-05-05 08:07 | 49.02533 | 0.43276 | 36900 ft | 424 kts | 165° |
| 2026-05-05 08:07 | 48.96843 | 0.45645 | 36891 ft | 424 kts | 165° |
| 2026-05-05 08:08 | 48.91147 | 0.48011 | 36908 ft | 425 kts | 165° |
| 2026-05-05 08:08 | 48.85429 | 0.50382 | 36891 ft | 427 kts | 165° |
| 2026-05-05 08:09 | 48.79712 | 0.52746 | 36882 ft | 425 kts | 165° |
| 2026-05-05 08:09 | 48.74012 | 0.55022 | 36882 ft | 423 kts | 166° |
| 2026-05-05 08:10 | 48.68327 | 0.57225 | 36876 ft | 421 kts | 166° |
| 2026-05-05 08:10 | 48.62660 | 0.59428 | 36891 ft | 421 kts | 166° |
| 2026-05-05 08:11 | 48.56974 | 0.61643 | 36874 ft | 422 kts | 166° |
| 2026-05-05 08:11 | 48.51295 | 0.63854 | 36883 ft | 422 kts | 166° |
| 2026-05-05 08:12 | 48.45619 | 0.66152 | 36871 ft | 422 kts | 165° |
| 2026-05-05 08:12 | 48.39953 | 0.68470 | 36866 ft | 422 kts | 165° |
| 2026-05-05 08:13 | 48.34292 | 0.70768 | 36865 ft | 421 kts | 165° |
| 2026-05-05 08:13 | 48.28633 | 0.73055 | 36863 ft | 421 kts | 166° |
| 2026-05-05 08:14 | 48.22979 | 0.75325 | 36860 ft | 421 kts | 166° |
| 2026-05-05 08:14 | 48.17319 | 0.77553 | 36867 ft | 421 kts | 166° |
| 2026-05-05 08:15 | 48.11646 | 0.79778 | 36856 ft | 423 kts | 166° |
| 2026-05-05 08:15 | 48.05934 | 0.82018 | 36854 ft | 425 kts | 166° |
| 2026-05-05 08:16 | 48.00210 | 0.84260 | 36868 ft | 426 kts | 166° |
| 2026-05-05 08:16 | 47.94469 | 0.86504 | 36857 ft | 427 kts | 166° |
| 2026-05-05 08:17 | 47.88715 | 0.88748 | 36846 ft | 428 kts | 166° |
| 2026-05-05 08:17 | 47.82959 | 0.90986 | 36844 ft | 427 kts | 166° |
| 2026-05-05 08:18 | 47.77205 | 0.93214 | 36841 ft | 427 kts | 166° |
| 2026-05-05 08:18 | 47.71456 | 0.95434 | 36850 ft | 427 kts | 166° |
| 2026-05-05 08:19 | 47.65703 | 0.97653 | 36861 ft | 428 kts | 166° |
| 2026-05-05 08:19 | 47.59974 | 0.99858 | 36849 ft | 429 kts | 166° |
| 2026-05-05 08:20 | 47.54217 | 1.02068 | 36841 ft | 426 kts | 166° |
| 2026-05-05 08:20 | 47.48492 | 1.04262 | 36840 ft | 424 kts | 166° |
| 2026-05-05 08:21 | 47.42760 | 1.06244 | 36839 ft | 423 kts | 173° |
| 2026-05-05 08:21 | 47.36898 | 1.06371 | 36855 ft | 421 kts | 181° |
| 2026-05-05 08:22 | 47.31039 | 1.06162 | 36859 ft | 421 kts | 181° |
| 2026-05-05 08:22 | 47.25184 | 1.06002 | 36853 ft | 421 kts | 181° |
| 2026-05-05 08:23 | 47.19327 | 1.05869 | 36862 ft | 421 kts | 181° |
| 2026-05-05 08:23 | 47.13468 | 1.05740 | 36867 ft | 421 kts | 181° |
| 2026-05-05 08:24 | 47.07595 | 1.05611 | 36866 ft | 422 kts | 181° |
| 2026-05-05 08:24 | 47.01712 | 1.05477 | 36866 ft | 423 kts | 181° |
| 2026-05-05 08:25 | 46.95821 | 1.05237 | 36884 ft | 425 kts | 182° |
| 2026-05-05 08:25 | 46.89903 | 1.04959 | 36877 ft | 426 kts | 182° |
| 2026-05-05 08:26 | 46.83971 | 1.04692 | 36864 ft | 426 kts | 182° |
| 2026-05-05 08:26 | 46.78043 | 1.04435 | 36871 ft | 426 kts | 182° |
| 2026-05-05 08:27 | 46.72129 | 1.04180 | 36890 ft | 425 kts | 182° |
| 2026-05-05 08:27 | 46.66207 | 1.03926 | 36878 ft | 426 kts | 182° |
| 2026-05-05 08:28 | 46.60286 | 1.03672 | 36869 ft | 425 kts | 182° |
| 2026-05-05 08:28 | 46.54381 | 1.03419 | 36873 ft | 424 kts | 182° |
| 2026-05-05 08:29 | 46.48527 | 1.04190 | 36881 ft | 424 kts | 168° |
| 2026-05-05 08:30 | 46.39915 | 1.07162 | 36886 ft | 424 kts | 168° |
| 2026-05-05 08:30 | 46.34203 | 1.09107 | 36896 ft | 425 kts | 168° |
| 2026-05-05 08:31 | 46.28442 | 1.11036 | 36893 ft | 425 kts | 168° |
| 2026-05-05 08:31 | 46.22662 | 1.12957 | 36895 ft | 427 kts | 168° |
| 2026-05-05 08:32 | 46.16871 | 1.14876 | 36902 ft | 428 kts | 168° |
| 2026-05-05 08:32 | 46.11062 | 1.16798 | 36898 ft | 429 kts | 168° |
| 2026-05-05 08:33 | 46.05236 | 1.18721 | 36909 ft | 430 kts | 168° |
| 2026-05-05 08:33 | 45.99408 | 1.20642 | 36912 ft | 430 kts | 169° |
| 2026-05-05 08:34 | 45.93578 | 1.22559 | 36907 ft | 430 kts | 169° |
| 2026-05-05 08:34 | 45.87748 | 1.24472 | 36918 ft | 430 kts | 169° |
| 2026-05-05 08:35 | 45.81919 | 1.26380 | 36904 ft | 430 kts | 169° |
| 2026-05-05 08:35 | 45.76088 | 1.28285 | 36906 ft | 429 kts | 169° |
| 2026-05-05 08:36 | 45.70267 | 1.30183 | 36913 ft | 429 kts | 169° |
| 2026-05-05 08:36 | 45.64449 | 1.32075 | 36913 ft | 428 kts | 169° |
| 2026-05-05 08:37 | 45.58641 | 1.33961 | 36907 ft | 428 kts | 169° |
| 2026-05-05 08:37 | 45.52830 | 1.35844 | 36916 ft | 428 kts | 169° |
| 2026-05-05 08:38 | 45.47020 | 1.37721 | 36921 ft | 428 kts | 169° |
| 2026-05-05 08:38 | 45.41209 | 1.39595 | 36921 ft | 428 kts | 169° |
| 2026-05-05 08:39 | 45.35400 | 1.41465 | 36925 ft | 428 kts | 170° |
| 2026-05-05 08:39 | 45.29582 | 1.43334 | 36932 ft | 429 kts | 170° |
| 2026-05-05 08:40 | 45.23756 | 1.45203 | 36931 ft | 430 kts | 170° |
| 2026-05-05 08:40 | 45.17923 | 1.47069 | 36933 ft | 430 kts | 170° |
| 2026-05-05 08:41 | 45.12087 | 1.48933 | 36936 ft | 430 kts | 170° |
| 2026-05-05 08:41 | 45.06251 | 1.50793 | 36942 ft | 430 kts | 170° |
| 2026-05-05 08:42 | 45.00408 | 1.52651 | 36944 ft | 431 kts | 170° |
| 2026-05-05 08:42 | 44.94562 | 1.54507 | 36933 ft | 431 kts | 171° |
| 2026-05-05 08:43 | 44.88714 | 1.56359 | 36938 ft | 431 kts | 171° |
| 2026-05-05 08:43 | 44.82907 | 1.58194 | 36942 ft | 430 kts | 171° |
| 2026-05-05 08:44 | 44.77064 | 1.60037 | 36943 ft | 430 kts | 171° |
| 2026-05-05 08:44 | 44.71223 | 1.61875 | 36941 ft | 430 kts | 171° |
| 2026-05-05 08:45 | 44.65387 | 1.63709 | 36949 ft | 429 kts | 171° |
| 2026-05-05 08:45 | 44.59562 | 1.65535 | 36943 ft | 428 kts | 171° |
| 2026-05-05 08:46 | 44.53751 | 1.67352 | 36954 ft | 428 kts | 171° |
| 2026-05-05 08:46 | 44.47946 | 1.69164 | 36949 ft | 427 kts | 171° |
| 2026-05-05 08:47 | 44.42144 | 1.70972 | 36956 ft | 427 kts | 171° |
| 2026-05-05 08:47 | 44.37326 | 1.72471 | 36955 ft | 427 kts | 171° |
| 2026-05-05 08:48 | 44.31529 | 1.74270 | 36963 ft | 427 kts | 171° |
| 2026-05-05 08:48 | 44.25709 | 1.75851 | 36975 ft | 425 kts | 175° |
| 2026-05-05 08:49 | 44.19857 | 1.77086 | 36958 ft | 426 kts | 175° |
| 2026-05-05 08:49 | 44.13992 | 1.78327 | 36969 ft | 426 kts | 175° |
| 2026-05-05 08:50 | 44.08128 | 1.79606 | 36969 ft | 427 kts | 175° |
| 2026-05-05 08:50 | 44.02262 | 1.80896 | 36975 ft | 427 kts | 175° |
| 2026-05-05 08:51 | 43.96394 | 1.82182 | 36968 ft | 427 kts | 175° |
| 2026-05-05 08:51 | 43.90519 | 1.83021 | 36982 ft | 423 kts | 180° |
| 2026-05-05 08:52 | 43.84643 | 1.83520 | 36979 ft | 423 kts | 181° |
| 2026-05-05 08:52 | 43.78772 | 1.84034 | 36975 ft | 423 kts | 181° |
| 2026-05-05 08:53 | 43.72907 | 1.84587 | 36981 ft | 422 kts | 181° |
| 2026-05-05 08:53 | 43.67044 | 1.85155 | 36980 ft | 422 kts | 180° |
| 2026-05-05 08:54 | 43.61182 | 1.85723 | 36965 ft | 422 kts | 181° |
| 2026-05-05 08:54 | 43.55333 | 1.86289 | 36981 ft | 421 kts | 181° |
| 2026-05-05 08:55 | 43.49531 | 1.86847 | 36973 ft | 420 kts | 181° |
| 2026-05-05 08:55 | 43.43700 | 1.87408 | 36977 ft | 419 kts | 181° |
| 2026-05-05 08:56 | 43.37890 | 1.87966 | 36967 ft | 418 kts | 181° |
| 2026-05-05 08:56 | 43.32096 | 1.88521 | 36970 ft | 417 kts | 181° |
| 2026-05-05 08:57 | 43.26314 | 1.89078 | 36972 ft | 416 kts | 181° |
| 2026-05-05 08:57 | 43.20552 | 1.89632 | 36954 ft | 415 kts | 182° |
| 2026-05-05 08:58 | 43.14796 | 1.90184 | 36964 ft | 414 kts | 182° |
| 2026-05-05 08:58 | 43.09054 | 1.90734 | 36964 ft | 413 kts | 182° |
| 2026-05-05 08:59 | 43.03326 | 1.91282 | 36960 ft | 412 kts | 182° |
| 2026-05-05 08:59 | 42.97615 | 1.91827 | 36950 ft | 410 kts | 182° |
| 2026-05-05 09:00 | 42.91928 | 1.92369 | 36956 ft | 409 kts | 182° |
| 2026-05-05 09:00 | 42.86244 | 1.92908 | 36961 ft | 409 kts | 182° |
| 2026-05-05 09:01 | 42.80563 | 1.93446 | 36965 ft | 409 kts | 182° |
| 2026-05-05 09:01 | 42.74883 | 1.93984 | 36941 ft | 409 kts | 182° |
| 2026-05-05 09:02 | 42.69209 | 1.94520 | 36938 ft | 408 kts | 183° |
| 2026-05-05 09:02 | 42.63529 | 1.95337 | 36927 ft | 415 kts | 179° |
| 2026-05-05 09:03 | 42.57813 | 1.96540 | 36920 ft | 416 kts | 178° |
| 2026-05-05 09:03 | 42.52105 | 1.97730 | 36939 ft | 415 kts | 178° |
| 2026-05-05 09:04 | 42.46397 | 1.98875 | 36916 ft | 414 kts | 179° |
| 2026-05-05 09:04 | 42.40706 | 2.00005 | 36925 ft | 413 kts | 179° |
| 2026-05-05 09:05 | 42.35022 | 2.01028 | 36922 ft | 409 kts | 182° |
| 2026-05-05 09:05 | 42.29359 | 2.01584 | 36928 ft | 408 kts | 183° |
| 2026-05-05 09:06 | 42.23697 | 2.02081 | 36927 ft | 408 kts | 183° |
| 2026-05-05 09:06 | 42.18067 | 2.02596 | 36943 ft | 407 kts | 183° |
| 2026-05-05 09:07 | 42.12382 | 2.03136 | 36942 ft | 407 kts | 183° |
| 2026-05-05 09:07 | 42.06764 | 2.03677 | 36937 ft | 408 kts | 183° |
| 2026-05-05 09:08 | 42.01097 | 2.04219 | 36935 ft | 409 kts | 183° |
| 2026-05-05 09:08 | 41.95414 | 2.04761 | 36917 ft | 410 kts | 183° |
| 2026-05-05 09:09 | 41.89705 | 2.05305 | 36945 ft | 413 kts | 183° |
| 2026-05-05 09:09 | 41.83964 | 2.05851 | 36953 ft | 415 kts | 183° |
| 2026-05-05 09:10 | 41.78192 | 2.06399 | 36954 ft | 416 kts | 183° |
| 2026-05-05 09:10 | 41.72411 | 2.06949 | 36948 ft | 416 kts | 183° |
| 2026-05-05 09:11 | 41.66636 | 2.07493 | 36962 ft | 417 kts | 183° |
| 2026-05-05 09:11 | 41.60850 | 2.08027 | 36968 ft | 417 kts | 183° |
| 2026-05-05 09:12 | 41.55061 | 2.08560 | 36960 ft | 416 kts | 183° |
| 2026-05-05 09:12 | 41.49292 | 2.09093 | 36958 ft | 415 kts | 184° |
| 2026-05-05 09:13 | 41.43530 | 2.09623 | 36943 ft | 414 kts | 184° |
| 2026-05-05 09:13 | 41.37780 | 2.10152 | 36931 ft | 414 kts | 184° |
| 2026-05-05 09:14 | 41.32040 | 2.10677 | 36907 ft | 413 kts | 184° |
| 2026-05-05 09:14 | 41.26306 | 2.11431 | 36930 ft | 416 kts | 181° |
| 2026-05-05 09:15 | 41.20575 | 2.12438 | 36948 ft | 415 kts | 180° |
| 2026-05-05 09:15 | 41.14850 | 2.13443 | 36938 ft | 415 kts | 180° |
| 2026-05-05 09:16 | 41.09125 | 2.14419 | 36933 ft | 414 kts | 181° |
| 2026-05-05 09:16 | 41.03418 | 2.15376 | 36941 ft | 413 kts | 181° |
| 2026-05-05 09:17 | 40.97715 | 2.16326 | 36951 ft | 413 kts | 181° |
| 2026-05-05 09:17 | 40.92050 | 2.17268 | 36953 ft | 413 kts | 181° |
| 2026-05-05 09:18 | 40.86348 | 2.18216 | 36941 ft | 413 kts | 182° |
| 2026-05-05 09:18 | 40.80650 | 2.19162 | 36942 ft | 413 kts | 182° |
| 2026-05-05 09:19 | 40.74957 | 2.20105 | 36949 ft | 413 kts | 182° |
| 2026-05-05 09:19 | 40.69256 | 2.21047 | 36948 ft | 413 kts | 182° |
| 2026-05-05 09:20 | 40.63552 | 2.21989 | 36946 ft | 413 kts | 182° |
| 2026-05-05 09:20 | 40.60699 | 2.22460 | 36717 ft | 413 kts | 182° |
| 2026-05-05 09:20 | 40.57876 | 2.22929 | 36474 ft | 405 kts | 182° |
| 2026-05-05 09:20 | 40.55101 | 2.23390 | 36087 ft | 400 kts | 182° |
| 2026-05-05 09:21 | 40.52356 | 2.23843 | 35755 ft | 395 kts | 182° |
| 2026-05-05 09:21 | 40.49641 | 2.24287 | 35374 ft | 392 kts | 183° |
| 2026-05-05 09:21 | 40.46946 | 2.24728 | 35005 ft | 388 kts | 183° |
| 2026-05-05 09:21 | 40.44279 | 2.25165 | 34609 ft | 385 kts | 183° |
| 2026-05-05 09:22 | 40.41629 | 2.25602 | 34260 ft | 382 kts | 183° |
| 2026-05-05 09:22 | 40.39014 | 2.26162 | 34012 ft | 380 kts | 181° |
| 2026-05-05 09:22 | 40.36441 | 2.26828 | 33733 ft | 374 kts | 180° |
| 2026-05-05 09:22 | 40.33910 | 2.27517 | 33466 ft | 368 kts | 180° |
| 2026-05-05 09:23 | 40.31420 | 2.28195 | 33144 ft | 364 kts | 180° |
| 2026-05-05 09:23 | 40.28953 | 2.28855 | 32790 ft | 360 kts | 180° |
| 2026-05-05 09:23 | 40.26504 | 2.29501 | 32433 ft | 357 kts | 180° |
| 2026-05-05 09:23 | 40.24084 | 2.30133 | 32027 ft | 355 kts | 180° |
| 2026-05-05 09:24 | 40.21623 | 2.30762 | 31253 ft | 364 kts | 180° |
| 2026-05-05 09:24 | 40.19130 | 2.31398 | 30752 ft | 366 kts | 180° |
| 2026-05-05 09:24 | 40.16640 | 2.32040 | 30412 ft | 363 kts | 180° |
| 2026-05-05 09:24 | 40.14180 | 2.32678 | 30114 ft | 359 kts | 180° |
| 2026-05-05 09:25 | 40.11738 | 2.33310 | 29727 ft | 356 kts | 180° |
| 2026-05-05 09:25 | 40.09312 | 2.33934 | 29303 ft | 354 kts | 180° |
| 2026-05-05 09:25 | 40.06898 | 2.34554 | 28858 ft | 352 kts | 180° |
| 2026-05-05 09:25 | 40.04497 | 2.35170 | 28445 ft | 350 kts | 180° |
| 2026-05-05 09:26 | 40.02115 | 2.35780 | 28047 ft | 348 kts | 179° |
| 2026-05-05 09:26 | 39.99740 | 2.36388 | 27620 ft | 346 kts | 179° |
| 2026-05-05 09:26 | 39.97379 | 2.36991 | 27188 ft | 346 kts | 179° |
| 2026-05-05 09:26 | 39.95023 | 2.37593 | 26786 ft | 344 kts | 179° |
| 2026-05-05 09:27 | 39.92679 | 2.38192 | 26423 ft | 342 kts | 179° |
| 2026-05-05 09:27 | 39.90347 | 2.38788 | 26055 ft | 340 kts | 179° |
| 2026-05-05 09:27 | 39.88030 | 2.39379 | 25685 ft | 339 kts | 179° |
| 2026-05-05 09:27 | 39.85723 | 2.39967 | 25321 ft | 337 kts | 178° |
| 2026-05-05 09:28 | 39.83426 | 2.40552 | 24963 ft | 336 kts | 178° |
| 2026-05-05 09:28 | 39.81138 | 2.41135 | 24626 ft | 334 kts | 178° |
| 2026-05-05 09:28 | 39.78867 | 2.41713 | 24283 ft | 332 kts | 178° |
| 2026-05-05 09:28 | 39.76600 | 2.42283 | 23911 ft | 330 kts | 179° |
| 2026-05-05 09:29 | 39.74347 | 2.42525 | 23553 ft | 321 kts | 189° |
| 2026-05-05 09:29 | 39.72158 | 2.42281 | 23175 ft | 314 kts | 194° |
| 2026-05-05 09:29 | 39.69997 | 2.41933 | 22794 ft | 312 kts | 194° |
| 2026-05-05 09:29 | 39.67850 | 2.41583 | 22416 ft | 311 kts | 194° |
| 2026-05-05 09:30 | 39.65711 | 2.41241 | 22043 ft | 309 kts | 194° |
| 2026-05-05 09:30 | 39.63581 | 2.40908 | 21689 ft | 308 kts | 194° |
| 2026-05-05 09:30 | 39.61459 | 2.40582 | 21343 ft | 306 kts | 194° |
| 2026-05-05 09:30 | 39.59345 | 2.40259 | 21020 ft | 305 kts | 194° |
| 2026-05-05 09:31 | 39.57247 | 2.39914 | 20678 ft | 301 kts | 198° |
| 2026-05-05 09:31 | 39.55357 | 2.38925 | 20276 ft | 290 kts | 217° |
| 2026-05-05 09:31 | 39.53825 | 2.37283 | 19911 ft | 284 kts | 231° |
| 2026-05-05 09:31 | 39.52651 | 2.35229 | 19552 ft | 283 kts | 237° |
| 2026-05-05 09:32 | 39.51934 | 2.33829 | 19332 ft | 282 kts | 238° |
| 2026-05-05 09:32 | 39.50870 | 2.31696 | 18996 ft | 281 kts | 238° |
| 2026-05-05 09:32 | 39.49813 | 2.29570 | 18672 ft | 280 kts | 238° |
| 2026-05-05 09:32 | 39.48757 | 2.27453 | 18370 ft | 280 kts | 238° |
| 2026-05-05 09:33 | 39.47356 | 2.24663 | 17914 ft | 278 kts | 238° |
| 2026-05-05 09:33 | 39.46643 | 2.23248 | 17655 ft | 278 kts | 237° |
| 2026-05-05 09:33 | 39.45586 | 2.21156 | 17298 ft | 277 kts | 237° |
| 2026-05-05 09:33 | 39.44530 | 2.19073 | 16928 ft | 277 kts | 237° |
| 2026-05-05 09:34 | 39.43476 | 2.16996 | 16586 ft | 276 kts | 237° |
| 2026-05-05 09:34 | 39.42424 | 2.14926 | 16243 ft | 275 kts | 237° |
| 2026-05-05 09:34 | 39.41372 | 2.12859 | 15883 ft | 275 kts | 237° |
| 2026-05-05 09:34 | 39.40322 | 2.10798 | 15541 ft | 274 kts | 237° |
| 2026-05-05 09:35 | 39.39274 | 2.08742 | 15213 ft | 274 kts | 237° |
| 2026-05-05 09:35 | 39.37183 | 2.04645 | 14562 ft | 273 kts | 237° |
| 2026-05-05 09:35 | 39.36137 | 2.02599 | 14231 ft | 272 kts | 237° |
| 2026-05-05 09:36 | 39.35094 | 2.00559 | 13907 ft | 272 kts | 237° |
| 2026-05-05 09:36 | 39.34051 | 1.98520 | 13562 ft | 272 kts | 237° |
| 2026-05-05 09:36 | 39.33009 | 1.96485 | 13208 ft | 271 kts | 237° |
| 2026-05-05 09:36 | 39.31968 | 1.94454 | 12873 ft | 270 kts | 237° |
| 2026-05-05 09:37 | 39.30945 | 1.92458 | 12523 ft | 270 kts | 237° |
| 2026-05-05 09:37 | 39.29908 | 1.90436 | 12186 ft | 270 kts | 237° |
| 2026-05-05 09:37 | 39.28873 | 1.88420 | 11894 ft | 268 kts | 237° |
| 2026-05-05 09:37 | 39.27844 | 1.86416 | 11569 ft | 268 kts | 237° |
| 2026-05-05 09:38 | 39.26814 | 1.84411 | 11237 ft | 268 kts | 237° |
| 2026-05-05 09:38 | 39.25783 | 1.82403 | 10900 ft | 268 kts | 237° |
| 2026-05-05 09:38 | 39.24754 | 1.80404 | 10628 ft | 266 kts | 237° |
| 2026-05-05 09:38 | 39.23739 | 1.78435 | 10430 ft | 259 kts | 237° |
| 2026-05-05 09:39 | 39.22754 | 1.76525 | 10131 ft | 253 kts | 237° |
| 2026-05-05 09:39 | 39.21797 | 1.74669 | 9872 ft | 245 kts | 237° |
| 2026-05-05 09:39 | 39.20862 | 1.72858 | 9574 ft | 239 kts | 237° |
| 2026-05-05 09:39 | 39.20081 | 1.71005 | 9260 ft | 235 kts | 255° |
| 2026-05-05 09:40 | 39.19985 | 1.68919 | 9000 ft | 236 kts | 277° |
| 2026-05-05 09:40 | 39.20540 | 1.66933 | 8702 ft | 239 kts | 300° |
| 2026-05-05 09:40 | 39.21709 | 1.65398 | 8414 ft | 244 kts | 325° |
| 2026-05-05 09:40 | 39.23307 | 1.64647 | 8155 ft | 249 kts | 352° |
| 2026-05-05 09:41 | 39.25027 | 1.64900 | 7901 ft | 253 kts | 20° |
| 2026-05-05 09:41 | 39.26511 | 1.66115 | 7660 ft | 255 kts | 45° |
| 2026-05-05 09:41 | 39.27606 | 1.67916 | 7432 ft | 255 kts | 56° |
| 2026-05-05 09:41 | 39.28588 | 1.69831 | 7197 ft | 256 kts | 57° |
| 2026-05-05 09:42 | 39.29564 | 1.71752 | 6952 ft | 256 kts | 57° |
| 2026-05-05 09:42 | 39.30546 | 1.73670 | 6713 ft | 256 kts | 58° |
| 2026-05-05 09:42 | 39.31190 | 1.75780 | 6449 ft | 254 kts | 86° |
| 2026-05-05 09:42 | 39.30979 | 1.77991 | 6210 ft | 247 kts | 114° |
| 2026-05-05 09:43 | 39.30074 | 1.79831 | 5963 ft | 241 kts | 139° |
| 2026-05-05 09:43 | 39.28643 | 1.80847 | 5698 ft | 235 kts | 171° |
| 2026-05-05 09:43 | 39.27067 | 1.80736 | 5456 ft | 231 kts | 200° |
| 2026-05-05 09:43 | 39.25683 | 1.79720 | 5246 ft | 230 kts | 215° |
| 2026-05-05 09:44 | 39.24185 | 1.78996 | 4964 ft | 232 kts | 178° |
| 2026-05-05 09:44 | 39.22628 | 1.79380 | 4775 ft | 232 kts | 167° |
| 2026-05-05 09:44 | 39.21047 | 1.79804 | 4519 ft | 232 kts | 170° |
| 2026-05-05 09:44 | 39.19456 | 1.80159 | 4258 ft | 232 kts | 172° |
| 2026-05-05 09:45 | 39.17861 | 1.80470 | 4007 ft | 232 kts | 173° |
| 2026-05-05 09:45 | 39.16265 | 1.80749 | 3782 ft | 231 kts | 174° |
| 2026-05-05 09:45 | 39.14693 | 1.80996 | 3652 ft | 225 kts | 175° |
| 2026-05-05 09:45 | 39.13155 | 1.81224 | 3529 ft | 222 kts | 175° |
| 2026-05-05 09:46 | 39.11612 | 1.81444 | 3427 ft | 225 kts | 175° |
| 2026-05-05 09:46 | 39.10049 | 1.81663 | 3324 ft | 227 kts | 176° |
| 2026-05-05 09:46 | 39.08473 | 1.81884 | 3226 ft | 228 kts | 176° |
| 2026-05-05 09:46 | 39.06900 | 1.81982 | 3129 ft | 226 kts | 191° |
| 2026-05-05 09:47 | 39.05576 | 1.81037 | 3029 ft | 220 kts | 232° |
| 2026-05-05 09:47 | 39.04784 | 1.79349 | 3001 ft | 221 kts | 240° |
| 2026-05-05 09:47 | 39.04028 | 1.77627 | 2993 ft | 221 kts | 240° |
| 2026-05-05 09:47 | 39.03289 | 1.75910 | 2984 ft | 219 kts | 241° |
| 2026-05-05 09:48 | 39.02564 | 1.74191 | 2984 ft | 218 kts | 241° |
| 2026-05-05 09:48 | 39.01846 | 1.72473 | 2995 ft | 218 kts | 242° |
| 2026-05-05 09:48 | 39.01129 | 1.70749 | 2989 ft | 219 kts | 242° |
| 2026-05-05 09:48 | 39.00412 | 1.69024 | 2987 ft | 218 kts | 242° |
| 2026-05-05 09:49 | 38.99697 | 1.67302 | 2991 ft | 218 kts | 242° |
| 2026-05-05 09:49 | 38.98986 | 1.65588 | 2986 ft | 217 kts | 242° |
| 2026-05-05 09:49 | 38.98275 | 1.63875 | 2984 ft | 217 kts | 242° |
| 2026-05-05 09:49 | 38.97566 | 1.62165 | 2992 ft | 217 kts | 242° |
| 2026-05-05 09:50 | 38.96856 | 1.60455 | 2981 ft | 217 kts | 242° |
| 2026-05-05 09:50 | 38.96148 | 1.58744 | 2992 ft | 217 kts | 242° |
| 2026-05-05 09:50 | 38.95446 | 1.57053 | 2984 ft | 211 kts | 242° |
| 2026-05-05 09:50 | 38.94769 | 1.55419 | 2853 ft | 205 kts | 242° |
| 2026-05-05 09:51 | 38.94100 | 1.53802 | 2608 ft | 206 kts | 242° |
| 2026-05-05 09:51 | 38.93427 | 1.52175 | 2332 ft | 207 kts | 242° |
| 2026-05-05 09:51 | 38.92747 | 1.50532 | 2063 ft | 209 kts | 242° |
| 2026-05-05 09:51 | 38.92062 | 1.48876 | 1771 ft | 210 kts | 243° |
| 2026-05-05 09:52 | 38.91394 | 1.47261 | 1505 ft | 198 kts | 243° |
| 2026-05-05 09:52 | 38.90769 | 1.45748 | 1231 ft | 185 kts | 242° |
| 2026-05-05 09:52 | 38.90196 | 1.44363 | 1017 ft | 167 kts | 243° |
| 2026-05-05 09:52 | 38.89670 | 1.43088 | 788 ft | 154 kts | 242° |
| 2026-05-05 09:53 | 38.89188 | 1.41919 | 639 ft | 146 kts | 242° |
| 2026-05-05 09:53 | 38.88715 | 1.40773 | 405 ft | 144 kts | 240° |
| 2026-05-05 09:53 | 38.88250 | 1.39652 | 226 ft | 141 kts | 240° |
| 2026-05-05 09:53 | 38.87791 | 1.38539 | 30 ft | 142 kts | 240° |
| 2026-05-05 09:54 | 38.87373 | 1.37526 | 9 ft | 102 kts | 242° |
| 2026-05-05 09:54 | 38.87152 | 1.36991 | 9 ft | 32 kts | 242° |
| 2026-05-05 09:54 | 38.87101 | 1.36776 | 8 ft | 20 kts | 268° |
| 2026-05-05 09:54 | 38.87102 | 1.36635 | 7 ft | 13 kts | 273° |
| 2026-05-05 09:55 | 38.87117 | 1.36563 | 9 ft | 6 kts | 314° |
| 2026-05-05 09:55 | 38.87157 | 1.36561 | 7 ft | 6 kts | 31° |
| 2026-05-05 09:55 | 38.87181 | 1.36606 | 7 ft | 6 kts | 61° |
| 2026-05-05 09:55 | 38.87200 | 1.36653 | 8 ft | 6 kts | 63° |
| 2026-05-05 09:56 | 38.87219 | 1.36701 | 9 ft | 6 kts | 63° |
| 2026-05-05 09:56 | 38.87244 | 1.36765 | 8 ft | 11 kts | 63° |
| 2026-05-05 09:56 | 38.87283 | 1.36855 | 8 ft | 7 kts | 46° |
| 2026-05-05 09:56 | 38.87327 | 1.36847 | 8 ft | 8 kts | 333° |
| 2026-05-05 09:57 | 38.87385 | 1.36809 | 10 ft | 10 kts | 333° |
| 2026-05-05 09:57 | 38.87417 | 1.36752 | 7 ft | 9 kts | 255° |
| 2026-05-05 09:57 | 38.87404 | 1.36700 | 7 ft | 4 kts | 281° |
| 2026-05-05 09:57 | 38.87425 | 1.36676 | 8 ft | 4 kts | 331° |
| 2026-05-05 09:58 | 38.87446 | 1.36663 | 7 ft | 1 kts | 334° |
| 2026-05-05 09:58 | 38.87457 | 1.36663 | 7 ft | 2 kts | 3° |
| 2026-05-05 09:58 | 38.87462 | 1.36664 | 7 ft | 0 kts | 12° |
| 2026-05-05 10:21 | 38.87464 | 1.36669 | 9 ft | 1 kts | 53° |
| 2026-05-05 10:22 | 38.87459 | 1.36676 | 9 ft | 2 kts | 131° |